createdAt,value
2023-02-02T00:02:01.851Z,1.98
2023-02-02T00:04:31.641Z,0.75
2023-02-02T00:06:59.061Z,1.30
2023-02-02T00:09:28.948Z,1.20
2023-02-02T00:11:55.952Z,1.73
2023-02-02T00:14:22.299Z,0.82
2023-02-02T00:16:50.751Z,1.15
2023-02-02T00:19:20.185Z,1.17
2023-02-02T00:21:46.873Z,1.42
2023-02-02T00:24:17.792Z,0.98
2023-02-02T00:26:45.670Z,0.98
2023-02-02T00:29:23.522Z,1.73
2023-02-02T00:31:50.517Z,1.02
2023-02-02T00:34:17.441Z,1.25
2023-02-02T00:36:44.884Z,1.70
2023-02-02T00:39:15.804Z,1.50
2023-02-02T00:41:42.138Z,1.42
2023-02-02T00:44:27.200Z,2.60
2023-02-02T00:46:53.542Z,3.33
2023-02-02T00:49:20.094Z,3.03
2023-02-02T00:51:46.445Z,2.58
2023-02-02T00:54:14.198Z,2.00
2023-02-02T00:56:41.647Z,2.22
2023-02-02T00:59:08.225Z,1.52
2023-02-02T01:01:34.899Z,2.85
2023-02-02T01:04:02.091Z,2.10
2023-02-02T01:06:28.438Z,2.25
2023-02-02T01:08:54.824Z,1.85
2023-02-02T01:11:21.135Z,2.58
2023-02-02T01:13:47.642Z,2.08
2023-02-02T01:16:14.250Z,2.50
2023-02-02T01:18:40.565Z,1.30
2023-02-02T01:21:09.982Z,1.63
2023-02-02T01:23:37.703Z,2.08
2023-02-02T01:26:07.074Z,1.83
2023-02-02T01:28:34.253Z,1.75
2023-02-02T01:31:07.180Z,1.20
2023-02-02T01:33:33.503Z,2.00
2023-02-02T01:36:04.679Z,1.75
2023-02-02T01:38:31.226Z,1.42
2023-02-02T01:40:58.204Z,1.52
2023-02-02T01:43:25.836Z,1.52
2023-02-02T01:45:53.418Z,1.55
2023-02-02T01:48:27.425Z,2.20
2023-02-02T01:50:59.368Z,2.10
2023-02-02T01:53:26.055Z,1.50
2023-02-02T01:55:52.573Z,1.08
2023-02-02T01:58:31.899Z,1.52
2023-02-02T02:00:58.289Z,1.27
2023-02-02T02:03:27.557Z,2.00
2023-02-02T02:05:56.979Z,1.60
2023-02-02T02:08:28.647Z,3.30
2023-02-02T02:10:55.354Z,2.92
2023-02-02T02:13:43.658Z,3.13
2023-02-02T02:16:39.172Z,1.55
2023-02-02T02:19:36.664Z,2.55
2023-02-02T02:22:32.854Z,1.08
2023-02-02T02:25:36.357Z,2.47
2023-02-02T02:28:28.643Z,1.52
2023-02-02T02:31:07.247Z,1.55
2023-02-02T02:33:56.815Z,2.13
2023-02-02T02:36:36.451Z,1.35
2023-02-02T02:39:33.363Z,1.60
2023-02-02T02:42:07.330Z,1.00
2023-02-02T02:44:33.938Z,0.82
2023-02-02T02:47:00.693Z,0.63
2023-02-02T02:49:27.040Z,1.17
2023-02-02T02:51:54.639Z,1.00
2023-02-02T02:54:34.147Z,1.13
2023-02-02T02:57:19.318Z,2.00
2023-02-02T03:00:07.323Z,1.08
2023-02-02T03:02:45.735Z,1.08
2023-02-02T03:05:14.944Z,1.23
2023-02-02T03:07:50.850Z,0.68
2023-02-02T03:10:21.580Z,1.08
2023-02-02T03:12:50.375Z,0.93
2023-02-02T03:15:18.363Z,1.67
2023-02-02T03:17:47.350Z,1.17
2023-02-02T03:20:13.816Z,2.03
2023-02-02T03:22:40.149Z,2.80
2023-02-02T03:25:10.697Z,3.38
2023-02-02T03:27:40.420Z,2.63
2023-02-02T03:30:10.116Z,2.17
2023-02-02T03:32:37.582Z,2.60
2023-02-02T03:35:04.505Z,2.67
2023-02-02T03:37:30.840Z,1.83
2023-02-02T03:39:57.177Z,1.38
2023-02-02T03:42:23.449Z,1.67
2023-02-02T03:44:49.741Z,1.35
2023-02-02T03:47:16.053Z,2.50
2023-02-02T03:49:42.413Z,1.58
2023-02-02T03:52:08.821Z,2.30
2023-02-02T03:54:35.130Z,2.20
2023-02-02T03:57:01.457Z,3.00
2023-02-02T03:59:27.732Z,2.78
2023-02-02T04:01:54.042Z,2.63
2023-02-02T04:04:20.414Z,3.03
2023-02-02T04:06:46.770Z,2.92
2023-02-02T04:09:13.192Z,4.47
2023-02-02T04:11:40.155Z,4.63
2023-02-02T04:14:06.984Z,5.53
2023-02-02T04:16:36.931Z,3.10
2023-02-02T04:19:04.447Z,2.80
2023-02-02T04:21:30.853Z,1.88
2023-02-02T04:23:57.358Z,1.67
2023-02-02T04:26:26.527Z,1.77
2023-02-02T04:28:53.566Z,3.38
2023-02-02T04:31:19.911Z,2.25
2023-02-02T04:33:46.263Z,2.75
2023-02-02T04:36:12.696Z,2.30
2023-02-02T04:38:39.021Z,4.10
2023-02-02T04:41:10.550Z,2.00
2023-02-02T04:43:37.777Z,3.05
2023-02-02T04:46:04.473Z,1.55
2023-02-02T04:48:31.358Z,2.50
2023-02-02T04:51:09.824Z,3.17
2023-02-02T04:53:36.169Z,3.10
2023-02-02T04:56:07.807Z,2.45
2023-02-02T04:58:34.438Z,1.65
2023-02-02T05:01:00.935Z,2.42
2023-02-02T05:03:27.313Z,1.83
2023-02-02T05:06:01.854Z,1.35
2023-02-02T05:08:28.232Z,1.65
2023-02-02T05:10:54.592Z,1.38
2023-02-02T05:13:20.872Z,1.77
2023-02-02T05:15:47.995Z,1.42
2023-02-02T05:18:14.646Z,1.73
2023-02-02T05:20:40.961Z,2.35
2023-02-02T05:23:07.498Z,1.85
2023-02-02T05:25:33.809Z,2.80
2023-02-02T05:28:00.192Z,1.92
2023-02-02T05:30:26.501Z,2.08
2023-02-02T05:32:52.789Z,1.00
2023-02-02T05:35:19.119Z,1.80
2023-02-02T05:37:45.435Z,1.50
2023-02-02T05:40:11.969Z,2.13
2023-02-02T05:42:38.258Z,1.60
2023-02-02T05:45:05.202Z,1.05
2023-02-02T05:47:31.472Z,2.50
2023-02-02T05:49:57.800Z,1.27
2023-02-02T05:52:25.748Z,1.55
2023-02-02T05:54:52.083Z,1.63
2023-02-02T05:57:18.397Z,1.17
2023-02-02T05:59:44.777Z,2.67
2023-02-02T06:02:11.146Z,1.83
2023-02-02T06:04:37.517Z,1.23
2023-02-02T06:07:03.853Z,1.60
2023-02-02T06:09:30.155Z,1.80
2023-02-02T06:11:56.436Z,1.48
2023-02-02T06:14:22.709Z,1.80
2023-02-02T06:16:49.078Z,1.83
2023-02-02T06:19:15.438Z,2.22
2023-02-02T06:21:41.750Z,1.30
2023-02-02T06:24:08.140Z,2.45
2023-02-02T06:26:34.637Z,1.42
2023-02-02T06:29:01.100Z,2.47
2023-02-02T06:31:27.522Z,1.70
2023-02-02T06:33:56.586Z,1.25
2023-02-02T06:36:24.417Z,2.25
2023-02-02T06:38:52.709Z,1.02
2023-02-02T06:41:20.285Z,2.00
2023-02-02T06:43:47.944Z,2.15
2023-02-02T06:46:14.733Z,2.20
2023-02-02T06:48:41.210Z,1.73
2023-02-02T06:51:07.615Z,2.38
2023-02-02T06:53:34.745Z,2.22
2023-02-02T06:56:06.762Z,2.70
2023-02-02T06:58:33.619Z,3.08
2023-02-02T07:01:11.361Z,3.13
2023-02-02T07:03:38.365Z,2.55
2023-02-02T07:06:18.203Z,2.95
2023-02-02T07:08:44.912Z,1.50
2023-02-02T07:11:15.513Z,2.80
2023-02-02T07:13:44.138Z,2.60
2023-02-02T07:16:12.627Z,3.05
2023-02-02T07:18:43.077Z,2.50
2023-02-02T07:21:15.305Z,1.45
2023-02-02T07:23:41.629Z,2.22
2023-02-02T07:26:09.842Z,2.47
2023-02-02T07:28:36.235Z,2.28
2023-02-02T07:31:14.057Z,1.38
2023-02-02T07:33:42.347Z,1.50
2023-02-02T07:36:09.185Z,1.60
2023-02-02T07:38:35.652Z,2.50
2023-02-02T07:41:02.001Z,1.73
2023-02-02T07:43:28.315Z,2.55
2023-02-02T07:45:55.455Z,2.47
2023-02-02T07:48:21.762Z,1.83
2023-02-02T07:50:48.044Z,2.55
2023-02-02T07:53:14.922Z,2.90
2023-02-02T07:55:41.243Z,2.00
2023-02-02T07:58:10.073Z,1.92
2023-02-02T08:00:36.485Z,2.05
2023-02-02T08:03:02.906Z,2.95
2023-02-02T08:05:29.413Z,1.50
2023-02-02T08:07:55.779Z,1.85
2023-02-02T08:10:22.223Z,3.00
2023-02-02T08:12:48.544Z,1.60
2023-02-02T08:15:14.910Z,1.95
2023-02-02T08:17:46.434Z,2.30
2023-02-02T08:20:13.557Z,2.38
2023-02-02T08:22:39.930Z,2.38
2023-02-02T08:25:06.684Z,3.20
2023-02-02T08:27:33.182Z,2.80
2023-02-02T08:29:59.520Z,2.47
2023-02-02T08:32:25.882Z,2.63
2023-02-02T08:34:52.173Z,2.58
2023-02-02T08:37:18.520Z,3.20
2023-02-02T08:39:44.861Z,4.28
2023-02-02T08:42:11.308Z,3.03
2023-02-02T08:45:59.561Z,3.55
2023-02-02T08:47:23.928Z,3.83
2023-02-02T08:49:50.522Z,2.92
2023-02-02T08:52:16.812Z,2.22
2023-02-02T08:54:43.117Z,2.38
2023-02-02T08:57:09.486Z,2.95
2023-02-02T08:59:35.789Z,3.25
2023-02-02T09:02:02.139Z,1.98
2023-02-02T09:04:28.671Z,2.03
2023-02-02T09:06:54.984Z,2.03
2023-02-02T09:09:21.332Z,2.47
2023-02-02T09:11:47.732Z,1.08
2023-02-02T09:14:14.588Z,1.33
2023-02-02T09:16:41.034Z,1.40
2023-02-02T09:19:07.622Z,2.33
2023-02-02T09:21:36.768Z,2.20
2023-02-02T09:24:11.157Z,2.28
2023-02-02T09:26:38.606Z,2.50
2023-02-02T09:29:06.416Z,4.28
2023-02-02T09:31:35.751Z,2.22
2023-02-02T09:34:07.414Z,1.52
2023-02-02T09:36:34.507Z,1.13
2023-02-02T09:39:01.109Z,2.13
2023-02-02T09:41:40.282Z,1.35
2023-02-02T09:44:14.588Z,1.50
2023-02-02T09:46:59.289Z,1.77
2023-02-02T09:49:44.153Z,1.33
2023-02-02T09:52:17.347Z,1.27
2023-02-02T09:54:48.282Z,2.00
2023-02-02T09:57:26.564Z,2.10
2023-02-02T09:59:54.457Z,1.48
2023-02-02T10:02:24.423Z,2.05
2023-02-02T10:04:55.950Z,1.60
2023-02-02T10:07:30.824Z,1.00
2023-02-02T10:10:07.825Z,2.00
2023-02-02T10:12:52.715Z,1.70
2023-02-02T10:15:33.244Z,1.95
2023-02-02T10:18:28.725Z,1.80
2023-02-02T10:21:03.635Z,1.30
2023-02-02T10:23:37.324Z,1.95
2023-02-02T10:26:19.285Z,2.13
2023-02-02T10:29:16.612Z,1.63
2023-02-02T10:32:10.934Z,1.45
2023-02-02T10:35:13.498Z,2.22
2023-02-02T10:37:59.385Z,2.40
2023-02-02T10:40:52.269Z,3.22
2023-02-02T10:43:46.938Z,2.05
2023-02-02T10:46:36.243Z,0.82
2023-02-02T10:49:38.119Z,2.50
2023-02-02T10:52:13.436Z,2.05
2023-02-02T10:54:55.502Z,2.00
2023-02-02T10:57:53.740Z,1.67
2023-02-02T11:00:30.512Z,1.38
2023-02-02T11:02:57.046Z,1.27
2023-02-02T11:05:45.596Z,1.95
2023-02-02T11:08:28.445Z,2.00
2023-02-02T11:10:57.928Z,1.63
2023-02-02T11:13:30.672Z,2.22
2023-02-02T11:16:42.804Z,2.60
2023-02-02T11:19:19.529Z,1.13
2023-02-02T11:21:48.602Z,1.85
2023-02-02T11:24:26.788Z,1.65
2023-02-02T11:27:10.511Z,1.13
2023-02-02T11:29:39.765Z,1.23
2023-02-02T11:32:30.471Z,0.82
2023-02-02T11:35:15.781Z,1.83
2023-02-02T11:38:18.352Z,0.70
2023-02-02T11:41:03.750Z,2.00
2023-02-02T11:43:34.899Z,2.35
2023-02-02T11:48:37.394Z,1.50
2023-02-02T11:51:05.410Z,2.13
2023-02-02T11:53:37.765Z,3.33
2023-02-02T11:56:08.763Z,3.30
2023-02-02T11:58:47.339Z,2.60
2023-02-02T12:01:33.761Z,2.60
2023-02-02T12:04:02.508Z,2.40
2023-02-02T12:06:38.878Z,2.60
2023-02-02T12:09:15.132Z,2.22
2023-02-02T12:12:02.721Z,3.63
2023-02-02T12:14:53.109Z,2.72
2023-02-02T12:17:35.112Z,2.60
2023-02-02T12:20:26.595Z,2.53
2023-02-02T12:26:16.140Z,1.42
2023-02-02T12:28:58.522Z,2.45
2023-02-02T12:31:51.834Z,1.95
2023-02-02T12:34:30.143Z,1.42
2023-02-02T12:37:09.889Z,1.80
2023-02-02T12:39:55.556Z,1.38
2023-02-02T12:42:49.431Z,1.92
2023-02-02T12:45:42.679Z,1.00
2023-02-02T12:48:23.917Z,1.35
2023-02-02T12:51:27.943Z,2.80
2023-02-02T12:54:34.670Z,1.25
2023-02-02T12:57:14.262Z,1.38
2023-02-02T13:00:03.097Z,1.20
2023-02-02T13:03:01.726Z,1.80
2023-02-02T13:05:58.934Z,2.00
2023-02-02T13:08:38.597Z,2.80
2023-02-02T13:11:31.573Z,2.17
2023-02-02T13:14:05.436Z,2.03
2023-02-02T13:16:35.768Z,1.65
2023-02-02T13:19:07.204Z,1.77
2023-02-02T13:21:36.357Z,2.20
2023-02-02T13:24:07.773Z,1.80
2023-02-02T13:26:44.723Z,1.63
2023-02-02T13:29:11.176Z,1.38
2023-02-02T13:31:46.598Z,1.13
2023-02-02T13:34:39.632Z,2.17
2023-02-02T13:37:23.608Z,1.55
2023-02-02T13:39:58.380Z,1.15
2023-02-02T13:42:30.755Z,0.90
2023-02-02T13:45:15.511Z,1.58
2023-02-02T13:47:49.087Z,1.45
2023-02-02T13:50:20.593Z,2.17
2023-02-02T13:53:13.130Z,1.50
2023-02-02T13:55:49.110Z,2.50
2023-02-02T13:58:44.319Z,2.50
2023-02-02T14:01:13.472Z,1.25
2023-02-02T14:03:44.025Z,2.75
2023-02-02T14:06:12.337Z,2.47
2023-02-02T14:08:46.714Z,2.58
2023-02-02T14:11:19.960Z,1.98
2023-02-02T14:14:08.477Z,2.95
2023-02-02T14:16:34.715Z,1.70
2023-02-02T14:19:03.295Z,2.33
2023-02-02T14:21:33.155Z,2.55
2023-02-02T14:24:26.414Z,3.08
2023-02-02T14:26:55.747Z,1.95
2023-02-02T14:29:31.592Z,1.42
2023-02-02T14:31:59.628Z,3.08
2023-02-02T14:34:34.007Z,2.10
2023-02-02T14:37:28.372Z,2.50
2023-02-02T14:40:06.861Z,2.22
2023-02-02T14:43:43.370Z,2.45
2023-02-02T14:46:12.726Z,2.42
2023-02-02T14:48:46.505Z,1.85
2023-02-02T14:51:23.099Z,3.20
2023-02-02T14:53:53.218Z,2.28
2023-02-02T14:56:21.859Z,3.40
2023-02-02T14:58:51.206Z,2.20
2023-02-02T15:01:17.625Z,3.22
2023-02-02T15:03:47.619Z,2.42
2023-02-02T15:06:25.147Z,3.15
2023-02-02T15:09:19.749Z,3.13
2023-02-02T15:12:00.567Z,2.88
2023-02-02T15:17:01.545Z,1.77
2023-02-02T15:19:35.756Z,1.77
2023-02-02T15:22:31.183Z,1.80
2023-02-02T15:25:11.228Z,2.00
2023-02-02T15:27:48.048Z,2.20
2023-02-02T15:30:22.356Z,1.08
2023-02-02T15:32:50.011Z,1.85
2023-02-02T15:35:24.946Z,1.75
2023-02-02T15:37:58.904Z,2.58
2023-02-02T15:40:27.775Z,1.38
2023-02-02T15:43:02.008Z,1.50
2023-02-02T15:45:28.440Z,2.65
2023-02-02T15:47:56.420Z,1.88
2023-02-02T15:50:22.886Z,2.03
2023-02-02T15:52:51.349Z,1.55
2023-02-02T15:55:34.019Z,2.83
2023-02-02T15:58:01.467Z,2.22
2023-02-02T16:00:34.768Z,2.35
2023-02-02T16:03:18.948Z,3.22
2023-02-02T16:05:51.759Z,2.03
2023-02-02T16:08:24.300Z,2.78
2023-02-02T16:10:50.859Z,2.97
2023-02-02T16:13:26.592Z,2.83
2023-02-02T16:16:01.412Z,2.50
2023-02-02T16:18:28.833Z,1.73
2023-02-02T16:20:57.222Z,2.10
2023-02-02T16:23:30.391Z,3.55
2023-02-02T16:25:59.619Z,2.50
2023-02-02T16:28:26.715Z,3.92
2023-02-02T16:30:53.719Z,3.72
2023-02-02T16:33:38.453Z,3.28
2023-02-02T16:36:26.125Z,3.00
2023-02-02T16:38:54.219Z,1.58
2023-02-02T16:41:33.706Z,4.07
2023-02-02T16:44:28.389Z,3.15
2023-02-02T16:46:55.176Z,4.03
2023-02-02T16:49:26.794Z,3.22
2023-02-02T16:52:13.535Z,3.22
2023-02-02T16:54:51.288Z,5.10
2023-02-02T16:57:29.655Z,2.50
2023-02-02T17:00:02.296Z,3.38
2023-02-02T17:02:37.454Z,4.82
2023-02-02T17:05:29.048Z,4.00
2023-02-02T17:08:04.154Z,2.85
2023-02-02T17:10:34.774Z,2.97
2023-02-02T17:13:03.080Z,5.03
2023-02-02T17:15:29.788Z,4.57
2023-02-02T17:17:56.903Z,4.90
2023-02-02T17:20:23.941Z,5.43
2023-02-02T17:23:18.349Z,4.25
2023-02-02T17:25:45.001Z,4.07
2023-02-02T17:28:14.313Z,4.88
2023-02-02T17:30:42.205Z,4.95
2023-02-02T17:33:19.790Z,4.25
2023-02-02T17:35:54.759Z,6.85
2023-02-02T17:38:23.520Z,4.10
2023-02-02T17:40:51.024Z,5.47
2023-02-02T17:43:17.437Z,4.55
2023-02-02T17:45:43.907Z,5.30
2023-02-02T17:48:12.163Z,5.63
2023-02-02T17:50:39.424Z,4.20
2023-02-02T17:53:05.745Z,5.53
2023-02-02T17:55:37.352Z,5.53
2023-02-02T17:58:03.911Z,6.07
2023-02-02T18:00:31.645Z,5.30
2023-02-02T18:03:12.126Z,3.28
2023-02-02T18:05:41.309Z,3.97
2023-02-02T18:08:11.156Z,4.65
2023-02-02T18:10:38.094Z,4.78
2023-02-02T18:13:04.582Z,5.68
2023-02-02T18:15:30.941Z,3.63
2023-02-02T18:17:57.555Z,5.05
2023-02-02T18:20:24.247Z,4.90
2023-02-02T18:22:51.780Z,4.90
2023-02-02T18:25:18.215Z,3.42
2023-02-02T18:27:44.992Z,4.35
2023-02-02T18:30:12.136Z,5.40
2023-02-02T18:32:40.102Z,2.95
2023-02-02T18:35:08.222Z,3.92
2023-02-02T18:37:35.386Z,3.88
2023-02-02T18:40:01.785Z,3.97
2023-02-02T18:42:29.856Z,4.72
2023-02-02T18:44:56.597Z,4.55
2023-02-02T18:47:22.904Z,4.40
2023-02-02T18:49:49.255Z,5.55
2023-02-02T18:52:15.597Z,6.03
2023-02-02T18:54:41.897Z,5.70
2023-02-02T18:57:08.247Z,3.42
2023-02-02T18:59:35.919Z,5.25
2023-02-02T19:02:02.348Z,5.15
2023-02-02T19:04:28.699Z,5.22
2023-02-02T19:07:13.338Z,2.95
2023-02-02T19:09:39.702Z,2.70
2023-02-02T19:12:12.588Z,2.45
2023-02-02T19:14:39.312Z,4.90
2023-02-02T19:17:19.079Z,4.97
2023-02-02T19:19:45.541Z,3.95
2023-02-02T19:22:32.300Z,4.32
2023-02-02T19:24:59.059Z,3.75
2023-02-02T19:27:29.054Z,2.95
2023-02-02T19:29:59.744Z,2.60
2023-02-02T19:32:30.678Z,3.70
2023-02-02T19:35:01.021Z,3.45
2023-02-02T19:37:31.997Z,4.57
2023-02-02T19:40:10.478Z,3.47
2023-02-02T19:42:43.150Z,3.60
2023-02-02T19:45:24.592Z,3.25
2023-02-02T19:47:53.881Z,4.13
2023-02-02T19:50:22.910Z,2.55
2023-02-02T19:52:50.150Z,3.38
2023-02-02T19:55:28.087Z,3.92
2023-02-02T19:58:01.080Z,3.53
2023-02-02T20:00:30.147Z,3.35
2023-02-02T20:02:58.825Z,4.53
2023-02-02T20:05:28.536Z,3.38
2023-02-02T20:08:01.476Z,2.75
2023-02-02T20:10:36.173Z,2.92
2023-02-02T20:13:21.541Z,2.70
2023-02-02T20:15:50.889Z,3.95
2023-02-02T20:18:34.195Z,3.58
2023-02-02T20:21:16.410Z,3.42
2023-02-02T20:23:44.441Z,2.38
2023-02-02T20:26:29.688Z,3.40
2023-02-02T20:29:01.128Z,2.95
2023-02-02T20:31:36.340Z,3.47
2023-02-02T20:34:17.309Z,2.25
2023-02-02T20:36:43.982Z,2.67
2023-02-02T20:39:27.296Z,3.30
2023-02-02T20:41:56.312Z,2.45
2023-02-02T20:44:24.405Z,2.70
2023-02-02T20:46:50.946Z,2.53
2023-02-02T20:49:17.624Z,2.50
2023-02-02T20:51:44.068Z,2.00
2023-02-02T20:54:10.817Z,1.85
2023-02-02T20:56:37.313Z,2.28
2023-02-02T20:59:07.029Z,2.88
2023-02-02T21:01:33.725Z,2.38
2023-02-02T21:04:00.095Z,1.58
2023-02-02T21:06:28.641Z,1.77
2023-02-02T21:08:55.284Z,2.55
2023-02-02T21:11:21.749Z,2.33
2023-02-02T21:13:49.991Z,1.52
2023-02-02T21:16:16.781Z,0.80
2023-02-02T21:18:47.193Z,2.22
2023-02-02T21:21:15.704Z,2.03
2023-02-02T21:23:46.797Z,1.27
2023-02-02T21:28:40.145Z,1.70
2023-02-02T21:31:12.122Z,2.70
2023-02-02T21:33:41.587Z,1.27
2023-02-02T21:36:34.255Z,2.70
2023-02-02T21:39:22.793Z,1.95
2023-02-02T21:41:50.637Z,2.05
2023-02-02T21:44:20.010Z,1.48
2023-02-02T21:46:48.744Z,2.33
2023-02-02T21:49:25.122Z,1.38
2023-02-02T21:51:54.609Z,2.00
2023-02-02T21:54:22.381Z,1.83
2023-02-02T21:56:49.620Z,1.33
2023-02-02T21:59:21.311Z,2.10
2023-02-02T22:01:49.576Z,1.83
2023-02-02T22:04:19.900Z,2.30
2023-02-02T22:06:54.239Z,1.33
2023-02-02T22:09:26.386Z,1.90
2023-02-02T22:12:01.256Z,1.80
2023-02-02T22:14:43.469Z,2.10
2023-02-02T22:17:22.106Z,1.13
2023-02-02T22:19:50.840Z,1.52
2023-02-02T22:22:23.310Z,1.40
2023-02-02T22:24:59.928Z,2.10
2023-02-02T22:27:39.612Z,1.40
2023-02-02T22:30:27.921Z,2.20
2023-02-02T22:32:55.006Z,2.25
2023-02-02T22:35:21.788Z,1.77
2023-02-02T22:37:48.111Z,1.83
2023-02-02T22:40:16.252Z,1.23
2023-02-02T22:42:43.097Z,1.98
2023-02-02T22:45:09.738Z,1.27
2023-02-02T22:47:36.061Z,1.23
2023-02-02T22:50:02.360Z,1.55
2023-02-02T22:52:28.672Z,2.28
2023-02-02T22:54:55.004Z,1.65
2023-02-02T22:57:21.312Z,1.73
2023-02-02T22:59:47.629Z,1.45
2023-02-02T23:02:13.937Z,1.25
2023-02-02T23:04:40.244Z,1.73
2023-02-02T23:07:06.562Z,1.88
2023-02-02T23:09:33.112Z,1.27
2023-02-02T23:11:59.448Z,1.50
2023-02-02T23:14:25.755Z,2.05
2023-02-02T23:16:52.063Z,1.70
2023-02-02T23:19:18.357Z,2.03
2023-02-02T23:21:44.675Z,1.20
2023-02-02T23:24:11.195Z,1.50
2023-02-02T23:26:37.567Z,2.00
2023-02-02T23:29:03.858Z,1.55
2023-02-02T23:31:30.223Z,2.05
2023-02-02T23:33:56.605Z,2.20
2023-02-02T23:36:22.912Z,1.30
2023-02-02T23:38:49.212Z,1.98
2023-02-02T23:41:15.613Z,1.73
2023-02-02T23:43:42.511Z,1.85
2023-02-02T23:46:09.908Z,1.67
2023-02-02T23:48:36.501Z,1.52
2023-02-02T23:51:02.970Z,3.05
2023-02-02T23:53:29.426Z,0.60
2023-02-02T23:55:55.803Z,2.28
2023-02-02T23:58:22.132Z,1.05
